createdAt,value
2022-10-02T00:01:28.561Z,10.70
2022-10-02T00:03:58.259Z,10.70
2022-10-02T00:06:39.787Z,10.80
2022-10-02T00:09:12.111Z,10.80
2022-10-02T00:11:44.664Z,10.80
2022-10-02T00:14:17.183Z,10.80
2022-10-02T00:16:49.199Z,10.70
2022-10-02T00:19:19.217Z,10.70
2022-10-02T00:22:14.628Z,10.70
2022-10-02T00:24:49.137Z,10.70
2022-10-02T00:27:38.728Z,10.60
2022-10-02T00:30:11.089Z,10.60
2022-10-02T00:32:48.807Z,10.60
2022-10-02T00:35:32.727Z,10.50
2022-10-02T00:38:09.513Z,10.50
2022-10-02T00:41:09.459Z,10.50
2022-10-02T00:43:43.212Z,10.50
2022-10-02T00:46:33.819Z,10.50
2022-10-02T00:49:25.801Z,10.50
2022-10-02T00:52:19.994Z,10.50
2022-10-02T00:55:09.388Z,10.40
2022-10-02T00:57:47.311Z,10.40
2022-10-02T01:00:17.660Z,10.50
2022-10-02T01:03:05.677Z,10.50
2022-10-02T01:05:36.366Z,10.50
2022-10-02T01:08:05.901Z,10.50
2022-10-02T01:10:35.993Z,10.50
2022-10-02T01:13:04.195Z,10.50
2022-10-02T01:15:34.858Z,10.50
2022-10-02T01:18:03.332Z,10.50
2022-10-02T01:20:37.368Z,10.50
2022-10-02T01:23:15.961Z,10.50
2022-10-02T01:25:46.207Z,10.50
2022-10-02T01:28:14.379Z,10.50
2022-10-02T01:30:45.683Z,10.50
2022-10-02T01:33:16.635Z,10.40
2022-10-02T01:35:45.000Z,10.40
2022-10-02T01:38:16.941Z,10.30
2022-10-02T01:40:46.360Z,10.30
2022-10-02T01:43:17.100Z,10.30
2022-10-02T01:46:08.637Z,10.20
2022-10-02T01:48:59.153Z,10.10
2022-10-02T01:51:42.165Z,10.10
2022-10-02T01:54:19.837Z,10.00
2022-10-02T01:57:00.624Z,10.00
2022-10-02T01:59:44.241Z,10.00
2022-10-02T02:02:19.797Z,9.90
2022-10-02T02:04:55.915Z,9.90
2022-10-02T02:07:35.413Z,9.80
2022-10-02T02:10:09.812Z,9.80
2022-10-02T02:12:44.297Z,9.70
2022-10-02T02:15:19.849Z,9.70
2022-10-02T02:17:53.511Z,9.70
2022-10-02T02:20:26.301Z,9.70
2022-10-02T02:22:55.934Z,9.70
2022-10-02T02:25:26.284Z,9.70
2022-10-02T02:27:59.070Z,9.70
2022-10-02T02:30:27.700Z,9.60
2022-10-02T02:32:59.114Z,9.60
2022-10-02T02:35:30.995Z,9.60
2022-10-02T02:38:05.946Z,9.50
2022-10-02T02:40:37.774Z,9.50
2022-10-02T02:43:11.909Z,9.40
2022-10-02T02:45:46.675Z,9.40
2022-10-02T02:48:22.220Z,9.30
2022-10-02T02:50:54.618Z,9.30
2022-10-02T02:53:28.443Z,9.30
2022-10-02T02:55:59.369Z,9.30
2022-10-02T02:58:32.478Z,9.30
2022-10-02T03:01:00.563Z,9.30
2022-10-02T03:03:28.664Z,9.30
2022-10-02T03:06:03.216Z,9.20
2022-10-02T03:08:33.943Z,9.20
2022-10-02T03:11:11.737Z,9.20
2022-10-02T03:13:56.332Z,9.20
2022-10-02T03:16:37.343Z,9.10
2022-10-02T03:19:17.999Z,9.10
2022-10-02T03:21:57.702Z,9.10
2022-10-02T03:24:30.878Z,9.00
2022-10-02T03:27:05.369Z,8.90
2022-10-02T03:29:41.061Z,8.80
2022-10-02T03:32:12.064Z,8.80
2022-10-02T03:34:41.027Z,8.80
2022-10-02T03:37:09.507Z,8.80
2022-10-02T03:39:41.756Z,8.80
2022-10-02T03:42:13.164Z,8.90
2022-10-02T03:44:43.195Z,8.80
2022-10-02T03:47:11.149Z,8.90
2022-10-02T03:49:39.515Z,8.90
2022-10-02T03:52:07.512Z,8.90
2022-10-02T03:54:37.416Z,8.90
2022-10-02T03:57:08.256Z,8.90
2022-10-02T03:59:47.668Z,8.90
2022-10-02T04:02:24.625Z,8.90
2022-10-02T04:04:56.944Z,8.90
2022-10-02T04:07:31.937Z,8.90
2022-10-02T04:10:10.008Z,8.90
2022-10-02T04:12:41.928Z,8.90
2022-10-02T04:15:20.178Z,8.90
2022-10-02T04:17:56.907Z,9.00
2022-10-02T04:20:31.571Z,9.00
2022-10-02T04:23:05.033Z,9.10
2022-10-02T04:25:39.459Z,9.20
2022-10-02T04:28:11.691Z,9.10
2022-10-02T04:30:41.069Z,9.20
2022-10-02T04:33:13.787Z,9.20
2022-10-02T04:35:53.243Z,9.20
2022-10-02T04:38:39.325Z,9.10
2022-10-02T04:41:25.231Z,9.10
2022-10-02T04:44:07.349Z,9.00
2022-10-02T04:46:58.652Z,9.10
2022-10-02T04:49:37.196Z,9.10
2022-10-02T04:52:24.173Z,9.10
2022-10-02T04:55:14.465Z,9.10
2022-10-02T04:58:01.824Z,9.10
2022-10-02T05:00:36.224Z,9.20
2022-10-02T05:03:21.080Z,9.30
2022-10-02T05:06:16.167Z,9.30
2022-10-02T05:09:11.655Z,9.40
2022-10-02T05:12:11.698Z,9.40
2022-10-02T05:14:59.456Z,9.60
2022-10-02T05:17:46.821Z,9.60
2022-10-02T05:20:42.114Z,9.60
2022-10-02T05:23:32.535Z,9.70
2022-10-02T05:26:14.245Z,9.70
2022-10-02T05:29:04.565Z,9.80
2022-10-02T05:31:45.687Z,9.90
2022-10-02T05:34:31.234Z,9.90
2022-10-02T05:37:13.379Z,9.90
2022-10-02T05:39:48.604Z,10.00
2022-10-02T05:42:22.501Z,10.00
2022-10-02T05:44:56.920Z,10.00
2022-10-02T05:47:30.396Z,10.10
2022-10-02T05:50:02.219Z,10.10
2022-10-02T05:52:38.820Z,10.20
2022-10-02T05:55:16.888Z,10.20
2022-10-02T05:57:49.636Z,10.30
2022-10-02T06:00:29.500Z,10.30
2022-10-02T06:03:08.104Z,10.40
2022-10-02T06:05:44.516Z,10.40
2022-10-02T06:08:17.520Z,10.50
2022-10-02T06:10:51.598Z,10.50
2022-10-02T06:13:25.988Z,10.50
2022-10-02T06:16:05.858Z,10.60
2022-10-02T06:18:36.530Z,10.70
2022-10-02T06:21:08.475Z,10.80
2022-10-02T06:23:41.348Z,10.80
2022-10-02T06:26:13.496Z,10.90
2022-10-02T06:28:44.957Z,10.90
2022-10-02T06:31:19.456Z,11.00
2022-10-02T06:33:47.521Z,11.00
2022-10-02T06:36:39.253Z,11.10
2022-10-02T06:39:38.620Z,11.10
2022-10-02T06:42:16.763Z,11.10
2022-10-02T06:44:51.288Z,11.10
2022-10-02T06:47:34.910Z,11.10
2022-10-02T06:50:27.478Z,11.20
2022-10-02T06:53:03.712Z,11.30
2022-10-02T06:55:46.316Z,11.40
2022-10-02T06:58:37.220Z,11.50
2022-10-02T07:01:15.727Z,11.60
2022-10-02T07:04:05.153Z,11.60
2022-10-02T07:06:55.070Z,11.60
2022-10-02T07:09:40.855Z,11.60
2022-10-02T07:12:28.203Z,11.60
2022-10-02T07:15:11.916Z,11.70
2022-10-02T07:17:55.467Z,11.80
2022-10-02T07:20:33.293Z,11.80
2022-10-02T07:23:19.159Z,11.80
2022-10-02T07:26:02.225Z,11.90
2022-10-02T07:28:39.480Z,12.00
2022-10-02T07:31:18.801Z,12.00
2022-10-02T07:34:01.002Z,12.10
2022-10-02T07:36:39.388Z,12.10
2022-10-02T07:39:18.232Z,12.10
2022-10-02T07:42:01.356Z,12.10
2022-10-02T07:44:54.473Z,12.30
2022-10-02T07:47:36.868Z,12.40
2022-10-02T07:50:11.527Z,12.60
2022-10-02T07:52:46.193Z,12.90
2022-10-02T07:55:21.379Z,13.00
2022-10-02T07:58:00.258Z,13.20
2022-10-02T08:00:32.677Z,13.30
2022-10-02T08:03:02.590Z,13.20
2022-10-02T08:05:34.251Z,13.20
2022-10-02T08:08:07.963Z,13.20
2022-10-02T08:10:39.966Z,13.20
2022-10-02T08:13:16.054Z,13.30
2022-10-02T08:15:47.185Z,13.40
2022-10-02T08:18:35.623Z,13.40
2022-10-02T08:21:05.437Z,13.50
2022-10-02T08:23:38.999Z,13.60
2022-10-02T08:26:12.552Z,13.60
2022-10-02T08:28:47.943Z,13.70
2022-10-02T08:31:17.291Z,13.80
2022-10-02T08:33:45.313Z,13.90
2022-10-02T08:37:01.436Z,13.90
2022-10-02T08:39:46.177Z,14.40
2022-10-02T08:42:54.889Z,15.00
2022-10-02T08:45:51.899Z,15.10
2022-10-02T08:48:54.945Z,15.40
2022-10-02T08:51:50.603Z,15.70
2022-10-02T08:55:03.635Z,15.70
2022-10-02T08:58:05.213Z,15.70
2022-10-02T09:00:45.104Z,15.60
2022-10-02T09:03:59.181Z,15.60
2022-10-02T09:07:07.209Z,15.50
2022-10-02T09:10:14.334Z,15.50
2022-10-02T09:13:14.017Z,15.60
2022-10-02T09:15:46.309Z,15.70
2022-10-02T09:18:36.006Z,15.90
2022-10-02T09:21:16.776Z,16.20
2022-10-02T09:24:03.593Z,16.20
2022-10-02T09:26:47.042Z,16.40
2022-10-02T09:30:01.673Z,16.40
2022-10-02T09:33:15.738Z,16.40
2022-10-02T09:36:07.421Z,16.30
2022-10-02T09:39:09.620Z,16.30
2022-10-02T09:42:00.810Z,16.10
2022-10-02T09:45:02.925Z,16.00
2022-10-02T09:48:22.921Z,16.10
2022-10-02T09:51:24.021Z,16.20
2022-10-02T09:54:13.529Z,16.20
2022-10-02T09:57:20.738Z,16.20
2022-10-02T10:00:11.306Z,16.10
2022-10-02T10:03:14.346Z,16.00
2022-10-02T10:06:25.638Z,16.00
2022-10-02T10:09:17.869Z,15.90
2022-10-02T10:12:23.863Z,16.00
2022-10-02T10:18:34.122Z,16.20
2022-10-02T10:21:15.385Z,16.40
2022-10-02T10:24:03.629Z,16.60
2022-10-02T10:27:08.508Z,16.70
2022-10-02T10:30:03.907Z,16.80
2022-10-02T10:32:59.458Z,17.00
2022-10-02T10:35:47.056Z,17.00
2022-10-02T10:38:42.335Z,17.00
2022-10-02T10:41:44.723Z,16.90
2022-10-02T10:44:51.349Z,16.90
2022-10-02T10:47:50.962Z,16.70
2022-10-02T10:50:35.832Z,16.70
2022-10-02T10:53:37.433Z,16.70
2022-10-02T10:56:37.100Z,16.70
2022-10-02T10:59:42.448Z,16.60
2022-10-02T11:02:40.291Z,16.50
2022-10-02T11:05:38.143Z,16.30
2022-10-02T11:08:29.065Z,16.30
2022-10-02T11:11:08.744Z,16.10
2022-10-02T11:13:55.767Z,16.10
2022-10-02T11:16:43.958Z,16.10
2022-10-02T11:19:47.699Z,16.10
2022-10-02T11:22:42.444Z,16.00
2022-10-02T11:25:57.290Z,16.00
2022-10-02T11:29:20.773Z,15.80
2022-10-02T11:32:10.111Z,15.80
2022-10-02T11:34:55.743Z,15.70
2022-10-02T11:37:40.316Z,15.60
2022-10-02T11:40:44.320Z,15.60
2022-10-02T11:43:43.269Z,15.50
2022-10-02T11:46:33.534Z,15.50
2022-10-02T11:49:25.156Z,15.40
2022-10-02T11:52:22.528Z,15.40
2022-10-02T11:55:03.810Z,15.30
2022-10-02T11:57:40.657Z,15.20
2022-10-02T12:00:35.964Z,15.10
2022-10-02T12:03:15.467Z,15.10
2022-10-02T12:05:53.384Z,14.90
2022-10-02T12:08:30.211Z,14.80
2022-10-02T12:11:06.542Z,14.80
2022-10-02T12:13:54.598Z,14.70
2022-10-02T12:16:32.953Z,14.60
2022-10-02T12:19:20.249Z,14.50
2022-10-02T12:22:17.854Z,14.40
2022-10-02T12:25:13.419Z,14.30
2022-10-02T12:27:52.907Z,14.20
2022-10-02T12:30:22.256Z,14.10
2022-10-02T12:33:08.834Z,14.00
2022-10-02T12:35:52.107Z,13.90
2022-10-02T12:38:29.326Z,13.90
2022-10-02T12:41:08.721Z,13.80
2022-10-02T12:44:16.991Z,13.80
2022-10-02T12:47:03.324Z,13.70
2022-10-02T12:49:45.537Z,13.60
2022-10-02T12:52:55.812Z,13.50
2022-10-02T12:56:01.287Z,13.50
2022-10-02T12:58:38.399Z,13.40
2022-10-02T13:01:46.810Z,13.30
2022-10-02T13:04:58.030Z,13.30
2022-10-02T13:08:02.876Z,13.20
2022-10-02T13:10:38.813Z,13.20
2022-10-02T13:13:24.829Z,13.10
2022-10-02T13:16:00.630Z,13.10
2022-10-02T13:18:57.632Z,13.10
2022-10-02T13:21:31.773Z,13.10
2022-10-02T13:24:15.441Z,13.10
2022-10-02T13:26:51.838Z,13.10
2022-10-02T13:29:42.869Z,13.00
2022-10-02T13:32:34.336Z,13.00
2022-10-02T13:35:27.082Z,13.00
2022-10-02T13:38:07.915Z,12.90
2022-10-02T13:40:47.603Z,12.90
2022-10-02T13:43:45.126Z,12.90
2022-10-02T13:46:27.059Z,12.90
2022-10-02T13:49:05.935Z,12.90
2022-10-02T13:51:45.908Z,12.80
2022-10-02T13:54:45.141Z,12.80
2022-10-02T13:57:24.746Z,12.80
2022-10-02T14:00:03.467Z,12.80
2022-10-02T14:02:46.519Z,12.80
2022-10-02T14:05:24.457Z,12.80
2022-10-02T14:08:06.747Z,12.70
2022-10-02T14:10:45.879Z,12.80
2022-10-02T14:13:29.850Z,12.70
2022-10-02T14:16:11.014Z,12.70
2022-10-02T14:19:20.116Z,12.70
2022-10-02T14:22:01.863Z,12.70
2022-10-02T14:24:56.228Z,12.60
2022-10-02T14:28:03.169Z,12.60
2022-10-02T14:30:47.498Z,12.60
2022-10-02T14:33:27.861Z,12.60
2022-10-02T14:36:03.868Z,12.50
2022-10-02T14:38:54.463Z,12.50
2022-10-02T14:41:49.337Z,12.50
2022-10-02T14:44:32.463Z,12.40
2022-10-02T14:47:17.862Z,12.40
2022-10-02T14:50:11.644Z,12.30
2022-10-02T14:52:58.277Z,12.30
2022-10-02T14:55:34.599Z,12.30
2022-10-02T14:58:15.902Z,12.30
2022-10-02T15:00:55.856Z,12.20
2022-10-02T15:04:00.994Z,12.20
2022-10-02T15:06:41.187Z,12.10
2022-10-02T15:09:17.021Z,12.10
2022-10-02T15:12:02.686Z,12.10
2022-10-02T15:14:40.789Z,12.10
2022-10-02T15:17:32.585Z,12.10
2022-10-02T15:20:12.218Z,12.10
2022-10-02T15:22:48.353Z,12.10
2022-10-02T15:25:23.891Z,12.00
2022-10-02T15:28:18.087Z,12.00
2022-10-02T15:30:56.823Z,12.00
2022-10-02T15:33:31.853Z,12.00
2022-10-02T15:36:20.351Z,12.00
2022-10-02T15:39:15.809Z,12.00
2022-10-02T15:41:49.225Z,11.90
2022-10-02T15:44:52.961Z,12.00
2022-10-02T15:47:35.791Z,11.90
2022-10-02T15:50:23.086Z,11.90
2022-10-02T15:53:03.001Z,11.90
2022-10-02T15:55:41.073Z,11.80
2022-10-02T15:58:24.308Z,11.80
2022-10-02T16:01:23.718Z,11.80
2022-10-02T16:03:52.249Z,11.80
2022-10-02T16:06:34.791Z,11.70
2022-10-02T16:09:17.554Z,11.70
2022-10-02T16:12:11.950Z,11.70
2022-10-02T16:14:58.998Z,11.60
2022-10-02T16:17:58.736Z,11.60
2022-10-02T16:20:50.194Z,11.60
2022-10-02T16:23:34.180Z,11.50
2022-10-02T16:26:11.393Z,11.50
2022-10-02T16:29:00.929Z,11.40
2022-10-02T16:31:34.394Z,11.40
2022-10-02T16:34:12.895Z,11.40
2022-10-02T16:36:48.159Z,11.40
2022-10-02T16:39:28.432Z,11.30
2022-10-02T16:42:02.914Z,11.30
2022-10-02T16:44:56.630Z,11.30
2022-10-02T16:47:30.476Z,11.20
2022-10-02T16:50:03.651Z,11.20
2022-10-02T16:52:39.005Z,11.20
2022-10-02T16:55:19.455Z,11.20
2022-10-02T16:58:02.061Z,11.20
2022-10-02T17:00:34.987Z,11.10
2022-10-02T17:03:10.019Z,11.10
2022-10-02T17:05:47.675Z,11.10
2022-10-02T17:08:24.063Z,11.10
2022-10-02T17:11:06.586Z,11.10
2022-10-02T17:13:48.434Z,11.10
2022-10-02T17:16:21.407Z,11.10
2022-10-02T17:18:55.611Z,11.10
2022-10-02T17:21:28.979Z,11.10
2022-10-02T17:24:31.994Z,11.10
2022-10-02T17:27:10.238Z,11.10
2022-10-02T17:29:48.705Z,11.10
2022-10-02T17:32:35.302Z,11.10
2022-10-02T17:35:03.304Z,11.10
2022-10-02T17:37:57.022Z,11.00
2022-10-02T17:40:28.766Z,11.00
2022-10-02T17:43:04.810Z,11.00
2022-10-02T17:45:43.497Z,10.90
2022-10-02T17:48:29.391Z,10.90
2022-10-02T17:51:40.506Z,11.00
2022-10-02T17:54:30.345Z,10.90
2022-10-02T17:57:15.190Z,10.90
2022-10-02T18:00:09.144Z,10.90
2022-10-02T18:03:10.526Z,10.90
2022-10-02T18:06:08.559Z,10.90
2022-10-02T18:09:10.303Z,10.90
2022-10-02T18:12:00.465Z,10.80
2022-10-02T18:14:56.759Z,10.80
2022-10-02T18:17:32.892Z,10.80
2022-10-02T18:20:12.124Z,10.80
2022-10-02T18:23:03.494Z,10.80
2022-10-02T18:25:49.064Z,10.80
2022-10-02T18:28:33.460Z,10.80
2022-10-02T18:31:28.829Z,10.80
2022-10-02T18:34:40.223Z,10.80
2022-10-02T18:37:28.096Z,10.80
2022-10-02T18:40:14.072Z,10.80
2022-10-02T18:42:51.665Z,10.90
2022-10-02T18:45:34.547Z,10.90
2022-10-02T18:48:29.974Z,10.90
2022-10-02T18:51:21.035Z,10.90
2022-10-02T18:54:11.708Z,10.90
2022-10-02T18:56:52.599Z,10.90
2022-10-02T18:59:29.309Z,10.90
2022-10-02T19:02:12.921Z,10.90
2022-10-02T19:05:03.561Z,10.90
2022-10-02T19:07:42.071Z,10.90
2022-10-02T19:10:26.200Z,10.90
2022-10-02T19:12:57.476Z,10.90
2022-10-02T19:15:29.108Z,10.90
2022-10-02T19:18:02.313Z,10.90
2022-10-02T19:20:42.170Z,11.00
2022-10-02T19:23:17.326Z,11.00
2022-10-02T19:25:48.557Z,11.00
2022-10-02T19:28:20.682Z,11.00
2022-10-02T19:30:52.265Z,11.00
2022-10-02T19:33:24.276Z,10.90
2022-10-02T19:35:52.956Z,11.00
2022-10-02T19:38:28.561Z,10.90
2022-10-02T19:41:00.696Z,11.00
2022-10-02T19:43:31.005Z,11.00
2022-10-02T19:46:03.650Z,11.00
2022-10-02T19:48:33.330Z,11.00
2022-10-02T19:51:03.918Z,11.00
2022-10-02T19:53:36.034Z,11.00
2022-10-02T19:56:10.855Z,11.00
2022-10-02T19:58:42.726Z,11.00
2022-10-02T20:01:21.113Z,11.00
2022-10-02T20:03:51.326Z,11.00
2022-10-02T20:06:23.039Z,11.00
2022-10-02T20:08:55.989Z,11.10
2022-10-02T20:11:30.192Z,11.10
2022-10-02T20:14:04.829Z,11.10
2022-10-02T20:16:50.147Z,11.00
2022-10-02T20:19:21.214Z,11.00
2022-10-02T20:21:52.358Z,11.10
2022-10-02T20:24:25.531Z,11.00
2022-10-02T20:27:01.115Z,11.00
2022-10-02T20:29:34.765Z,10.90
2022-10-02T20:32:07.699Z,10.80
2022-10-02T20:34:40.170Z,10.80
2022-10-02T20:37:12.824Z,10.80
2022-10-02T20:39:48.888Z,10.80
2022-10-02T20:42:23.107Z,10.80
2022-10-02T20:44:51.883Z,10.70
2022-10-02T20:47:56.347Z,10.70
2022-10-02T20:50:40.412Z,10.70
2022-10-02T20:53:30.781Z,10.60
2022-10-02T20:56:05.453Z,10.60
2022-10-02T20:59:04.776Z,10.50
2022-10-02T21:01:41.166Z,10.50
2022-10-02T21:04:29.715Z,10.50
2022-10-02T21:07:29.986Z,10.50
2022-10-02T21:10:21.482Z,10.50
2022-10-02T21:13:22.056Z,10.50
2022-10-02T21:16:17.333Z,10.40
2022-10-02T21:19:27.022Z,10.40
2022-10-02T21:22:34.207Z,10.40
2022-10-02T21:25:35.559Z,10.40
2022-10-02T21:28:52.781Z,10.40
2022-10-02T21:31:40.985Z,10.40
2022-10-02T21:34:22.854Z,10.40
2022-10-02T21:36:58.572Z,10.40
2022-10-02T21:40:14.677Z,10.40
2022-10-02T21:43:15.178Z,10.30
2022-10-02T21:46:12.671Z,10.30
2022-10-02T21:49:08.343Z,10.40
2022-10-02T21:52:10.326Z,10.30
2022-10-02T21:55:19.074Z,10.40
2022-10-02T21:58:21.484Z,10.30
2022-10-02T22:01:12.297Z,10.30
2022-10-02T22:04:11.851Z,10.40
2022-10-02T22:06:50.119Z,10.40
2022-10-02T22:09:37.514Z,10.30
2022-10-02T22:12:18.985Z,10.30
2022-10-02T22:14:51.487Z,10.30
2022-10-02T22:17:26.992Z,10.30
2022-10-02T22:20:13.244Z,10.30
2022-10-02T22:22:59.276Z,10.30
2022-10-02T22:25:40.206Z,10.20
2022-10-02T22:28:35.589Z,10.20
2022-10-02T22:31:42.292Z,10.10
2022-10-02T22:34:23.886Z,10.10
2022-10-02T22:37:24.561Z,10.10
2022-10-02T22:40:04.108Z,10.10
2022-10-02T22:42:35.067Z,10.10
2022-10-02T22:45:12.910Z,10.10
2022-10-02T22:47:47.936Z,10.10
2022-10-02T22:50:26.905Z,10.10
2022-10-02T22:53:00.534Z,10.10
2022-10-02T22:55:33.928Z,10.20
2022-10-02T22:58:06.967Z,10.10
2022-10-02T23:00:51.086Z,10.20
2022-10-02T23:03:26.004Z,10.30
2022-10-02T23:05:58.052Z,10.30
2022-10-02T23:08:32.875Z,10.20
2022-10-02T23:11:10.270Z,10.30
2022-10-02T23:13:47.559Z,10.30
2022-10-02T23:16:23.703Z,10.40
2022-10-02T23:18:57.988Z,10.40
2022-10-02T23:21:39.107Z,10.40
2022-10-02T23:24:24.056Z,10.40
2022-10-02T23:26:56.564Z,10.40
2022-10-02T23:29:39.176Z,10.40
2022-10-02T23:32:17.782Z,10.40
2022-10-02T23:34:55.726Z,10.40
2022-10-02T23:37:28.980Z,10.40
2022-10-02T23:40:14.562Z,10.40
2022-10-02T23:42:48.803Z,10.40
2022-10-02T23:45:24.084Z,10.40
2022-10-02T23:47:59.992Z,10.40
2022-10-02T23:50:34.116Z,10.30
2022-10-02T23:53:20.804Z,10.30
2022-10-02T23:56:14.193Z,10.30
2022-10-02T23:58:58.868Z,10.30
